Latest Weather Observations for Fowlers Gap

IDN60801

Issued at 12:05 pm EST Tuesday 29 July 2014 (issued every 30 minutes, with the page automatically refreshed every 10 minutes)

About weather observations | Map of weather stations | Latest weather observations for NSW | Other Formats
Station Details ID: 046128 Name: FOWLERS GAP AWS Lat: -31.09 Lon: 141.70 Height: 181.0 m
Data from the previous 72 hours. | See also: Recent months at Fowlers Gap
Date/Time
EST
Temp
°C
App
Temp
°C
Dew
Point
Rel
Hum
%
Delta-T
°C
Wind Press
QNH
hPa
Press
MSL
hPa
Rain
since 9 am
mm
Dir
 
Spd
km/h
Gust
km/h
Spd
kts
Gust
kts
29/12:00pm 21.1 13.7 -0.8 23 9.7 WNW 28 41 15 22 1021.2 1021.4 0.0
29/11:30am 19.6 12.9 -0.9 25 8.9 WNW 24 32 13 17 1021.6 - 0.0
29/11:00am 18.5 11.4 -1.3 26 8.5 WNW 26 32 14 17 1021.4 1021.6 0.0
29/10:30am 18.0 11.6 -1.8 26 8.3 NW 22 30 12 16 1021.6 - 0.0
29/10:00am 16.6 10.5 -2.0 28 7.7 NNW 20 28 11 15 1021.3 1021.5 0.0
29/09:30am 14.6 9.0 -2.8 30 7.0 NW 17 24 9 13 1021.6 - 0.0
29/09:00am 14.0 8.4 -2.8 31 6.6 NW 17 26 9 14 1021.4 1021.6 0.0
29/08:30am 13.2 8.0 -3.1 32 6.4 NW 15 19 8 10 1021.4 - 0.0
29/08:00am 12.9 7.2 -3.4 32 6.3 NW 17 24 9 13 1021.1 1021.2 0.0
29/07:30am 12.3 6.7 -3.1 34 6.0 NW 17 24 9 13 1020.9 - 0.0
29/07:00am 12.0 6.3 -3.4 34 5.9 NW 17 20 9 11 1020.9 1021.0 0.0
29/06:30am 11.6 6.4 -2.6 37 5.5 NW 15 20 8 11 1020.6 - 0.0
29/06:00am 9.1 4.7 -2.8 43 4.5 WNW 11 13 6 7 1020.6 1020.8 0.0
29/05:30am 11.7 6.1 -2.9 36 5.6 NW 17 22 9 12 1020.1 - 0.0
29/05:00am 12.2 6.2 -2.8 35 5.8 NW 19 26 10 14 1019.9 1020.1 0.0
29/04:30am 12.7 6.7 -2.7 34 6.0 NW 19 26 10 14 1019.9 - 0.0
29/04:00am 12.9 7.0 -2.6 34 6.1 NNW 19 26 10 14 1019.9 1020.1 0.0
29/03:30am 13.0 7.1 -2.5 34 6.1 NNW 19 24 10 13 1019.7 - 0.0
29/03:00am 13.7 7.6 -2.3 33 6.4 NW 20 28 11 15 1019.6 1019.8 0.0
29/02:30am 13.4 7.3 -2.1 34 6.2 NW 20 26 11 14 1019.6 - 0.0
29/02:00am 13.5 8.8 -2.0 34 6.2 NW 13 19 7 10 1019.8 1020.0 0.0
29/01:30am 9.8 7.2 -1.6 45 4.4 W 2 9 1 5 1019.9 - 0.0
29/01:00am 11.4 7.5 -1.4 41 5.1 NW 9 13 5 7 1019.9 1020.1 0.0
29/12:30am 11.6 7.3 -1.5 40 5.2 NNW 11 13 6 7 1019.8 - 0.0
29/12:00am 12.6 7.5 -1.7 37 5.7 NNW 15 19 8 10 1019.8 1020.0 0.0
 
Date/Time
EST
Temp
°C
App
Temp
°C
Dew
Point
Rel
Hum
%
Delta-T
°C
Wind Press
QNH
hPa
Press
MSL
hPa
Rain
since 9 am
mm
Dir
 
Spd
km/h
Gust
km/h
Spd
kts
Gust
kts
28/11:30pm 13.0 8.4 -1.3 37 5.8 NNW 13 15 7 8 1019.9 - 0.0
28/11:00pm 14.2 10.0 -1.0 35 6.3 NNW 11 17 6 9 1020.1 1020.3 0.0
28/10:30pm 13.1 8.9 -1.2 37 5.8 N 11 17 6 9 1020.3 - 0.0
28/10:00pm 13.0 8.8 -1.0 38 5.7 NNW 11 15 6 8 1020.1 1020.3 0.0
28/09:30pm 12.9 8.3 -1.1 38 5.7 NW 13 15 7 8 1020.0 - 0.0
28/09:00pm 12.0 9.5 -1.2 40 5.3 N 2 7 1 4 1020.0 1020.2 0.0
28/08:30pm 12.3 8.0 -1.6 38 5.6 NW 11 13 6 7 1019.9 - 0.0
28/08:00pm 12.3 8.7 -2.0 37 5.7 NNW 7 9 4 5 1019.7 1019.9 0.0
28/07:30pm 13.9 10.4 -1.3 35 6.2 NNW 7 9 4 5 1019.5 - 0.0
28/07:00pm 14.8 11.3 -1.3 33 6.6 NW 7 11 4 6 1019.4 1019.6 0.0
28/06:30pm 16.8 13.4 -0.9 30 7.5 NW 7 9 4 5 1019.2 - 0.0
28/06:00pm 19.1 14.9 -0.8 26 8.6 NW 11 13 6 7 1019.0 1019.2 0.0
28/05:30pm 20.8 16.3 -0.5 24 9.5 WNW 13 20 7 11 1018.9 - 0.0
28/05:00pm 21.5 17.0 -0.5 23 9.8 WNW 13 17 7 9 1018.7 1018.9 0.0
28/04:30pm 21.9 17.0 -0.8 22 10.1 NW 15 24 8 13 1018.8 - 0.0
28/04:00pm 21.8 16.9 -0.8 22 10.0 WNW 15 26 8 14 1018.7 1018.9 0.0
28/03:30pm 21.7 16.7 -0.9 22 10.0 NW 15 22 8 12 1018.9 - 0.0
28/03:00pm 22.1 17.9 -0.6 22 10.2 NNW 11 20 6 11 1019.1 1019.3 0.0
28/02:30pm 21.4 16.4 -1.2 22 10.0 NNW 15 22 8 12 1019.4 - 0.0
28/02:00pm 21.1 15.7 -1.4 22 9.8 NW 17 19 9 10 1019.7 1019.9 0.0
28/01:30pm 21.0 15.7 -0.9 23 9.7 NW 17 24 9 13 1020.2 - 0.0
28/01:00pm 20.5 14.7 -1.3 23 9.5 NNW 19 26 10 14 1021.0 1021.1 0.0
28/12:30pm 19.7 13.7 -1.4 24 9.1 NW 20 28 11 15 1021.7 - 0.0
28/12:00pm 19.4 13.1 -1.1 25 8.9 NW 22 30 12 16 1022.3 1022.5 0.0
28/11:30am 18.3 12.4 -1.0 27 8.3 NW 20 26 11 14 1022.6 - 0.0
28/11:00am 17.6 11.9 -1.1 28 7.9 NW 19 26 10 14 1022.9 1023.1 0.0
28/10:30am 16.2 10.9 -0.9 31 7.2 NW 17 20 9 11 1023.2 - 0.0
28/10:00am 15.2 10.6 -0.9 33 6.7 NW 13 17 7 9 1023.1 1023.3 0.0
28/09:30am 14.2 10.0 -1.0 35 6.3 WNW 11 17 6 9 1023.1 - 0.0
28/09:00am 11.5 8.3 -0.6 43 4.9 NW 6 9 3 5 1022.9 1023.1 0.0
28/08:30am 7.5 4.5 -1.7 52 3.5 WNW 4 7 2 4 1022.7 - 0.0
28/08:00am 5.4 1.4 -2.4 57 2.8 WNW 9 11 5 6 1022.5 1022.7 0.0
28/07:30am 3.0 -1.1 -2.7 66 2.0 WNW 9 11 5 6 1022.3 - 0.0
28/07:00am 2.0 -1.6 -3.5 67 1.8 WNW 6 7 3 4 1022.3 1022.5 0.0
28/06:30am 2.4 -1.2 -3.3 66 1.9 WNW 6 7 3 4 1022.1 - 0.0
28/06:00am 3.3 -0.4 -2.6 65 2.1 WNW 7 9 4 5 1022.2 1022.4 0.0
28/05:30am 2.0 -0.8 -3.5 67 1.9 WNW 2 7 1 4 1022.1 - 0.0
28/05:00am 2.7 -0.5 -3.2 65 2.0 WNW 4 6 2 3 1022.3 1022.5 0.0
28/04:30am 2.4 0.0 -3.3 66 1.9 CALM 0 0 0 0 1022.4 - 0.0
28/04:00am 3.3 1.0 -2.6 65 2.1 CALM 0 0 0 0 1022.3 1022.5 0.0
28/03:30am 3.9 1.5 -3.1 60 2.5 CALM 0 0 0 0 1022.3 - 0.0
28/03:00am 5.7 2.1 -2.1 57 2.9 WSW 7 9 4 5 1022.3 1022.5 0.0
28/02:30am 6.7 1.9 -2.2 53 3.3 WNW 13 15 7 8 1022.3 - 0.0
28/02:00am 6.5 2.9 -1.9 55 3.1 W 7 9 4 5 1022.4 1022.6 0.0
28/01:30am 6.8 3.5 -1.3 56 3.1 WNW 6 9 3 5 1022.3 - 0.0
28/01:00am 5.8 2.2 -1.8 58 2.8 NW 7 9 4 5 1022.7 1022.9 0.0
28/12:30am 5.4 3.1 -2.0 59 2.7 CALM 0 0 0 0 1023.1 - 0.0
28/12:00am 6.6 4.3 -2.0 54 3.2 CALM 0 0 0 0 1023.3 1023.5 0.0
 
Date/Time
EST
Temp
°C
App
Temp
°C
Dew
Point
Rel
Hum
%
Delta-T
°C
Wind Press
QNH
hPa
Press
MSL
hPa
Rain
since 9 am
mm
Dir
 
Spd
km/h
Gust
km/h
Spd
kts
Gust
kts
27/11:30pm 7.7 5.6 -1.0 54 3.4 CALM 0 0 0 0 1023.6 - 0.0
27/11:00pm 7.0 3.4 -1.9 53 3.3 NW 7 9 4 5 1023.7 1023.9 0.0
27/10:30pm 6.9 3.5 -2.0 53 3.3 NNW 6 7 3 4 1023.9 - 0.0
27/10:00pm 8.4 6.3 -1.1 51 3.7 CALM 0 6 0 3 1024.2 1024.4 0.0
27/09:30pm 9.5 6.0 -1.2 47 4.2 WNW 7 7 4 4 1024.0 - 0.0
27/09:00pm 10.3 7.0 -1.1 45 4.5 WNW 6 7 3 4 1023.8 1024.0 0.0
27/08:30pm 11.0 7.6 -0.8 44 4.8 NNW 7 11 4 6 1023.5 - 0.0
27/08:00pm 11.8 8.4 -0.7 42 5.1 NW 7 9 4 5 1023.5 1023.7 0.0
27/07:30pm 12.3 9.9 -0.2 42 5.2 N 2 7 1 4 1023.6 - 0.0
27/07:00pm 13.0 9.5 -1.0 38 5.7 N 7 9 4 5 1023.7 1023.9 0.0
27/06:30pm 14.9 11.7 -0.4 35 6.5 NW 6 6 3 3 1023.7 - 0.0
27/06:00pm 17.4 14.0 -0.3 30 7.6 WNW 7 9 4 5 1023.6 1023.8 0.0
27/05:30pm 19.1 15.4 0.2 28 8.4 NW 9 13 5 7 1023.5 - 0.0
27/05:00pm 19.6 14.8 0.1 27 8.6 WNW 15 22 8 12 1023.4 1023.6 0.0
27/04:30pm 20.0 15.2 0.5 27 8.8 WNW 15 22 8 12 1023.3 - 0.0
27/04:00pm 20.1 15.3 0.5 27 8.8 WNW 15 24 8 13 1023.3 1023.5 0.0
27/03:30pm 20.2 16.7 1.1 28 8.7 W 9 15 5 8 1023.3 - 0.0
27/03:00pm 19.5 15.2 1.0 29 8.3 WNW 13 20 7 11 1023.6 1023.8 0.0
27/02:30pm 19.9 15.7 1.8 30 8.4 NW 13 22 7 12 1024.0 - 0.0
27/02:00pm 19.2 14.3 1.7 31 8.0 NNW 17 22 9 12 1024.5 1024.7 0.0
27/01:30pm 19.0 14.5 2.0 32 7.8 WNW 15 22 8 12 1024.9 - 0.0
27/01:00pm 19.3 14.9 2.6 33 7.8 W 15 30 8 16 1025.6 1025.8 0.0
27/12:30pm 18.4 13.9 2.3 34 7.4 WNW 15 24 8 13 1026.3 - 0.0
27/12:00pm 18.0 13.9 2.3 35 7.2 NW 13 22 7 12 1026.8 1027.0 0.0
27/11:30am 17.8 13.6 3.7 39 6.7 N 15 20 8 11 1027.4 - 0.0
27/11:00am 16.9 12.8 4.6 44 5.8 N 15 20 8 11 1027.7 1027.9 0.0
27/10:30am 15.9 12.3 4.9 48 5.2 NE 13 17 7 9 1027.9 - 0.0
27/10:00am 14.3 11.9 5.1 54 4.3 NE 7 13 4 7 1028.0 1028.2 0.0
27/09:30am 10.0 8.3 2.1 58 3.4 CALM 0 4 0 2 1028.0 - 0.0
27/09:00am 7.9 6.1 1.3 63 2.7 CALM 0 0 0 0 1027.8 1028.0 0.0
27/08:30am 4.6 2.5 -0.6 69 2.0 CALM 0 0 0 0 1027.9 - 0.0
27/08:00am 3.2 1.1 -1.0 74 1.5 CALM 0 0 0 0 1027.7 1027.9 0.0
27/07:30am 1.7 -0.6 -2.1 76 1.3 CALM 0 0 0 0 1027.6 - 0.0
27/07:00am 1.8 -1.6 -2.0 76 1.3 WNW 6 7 3 4 1027.4 1027.6 0.0
27/06:30am 2.0 -0.2 -1.6 77 1.3 CALM 0 0 0 0 1027.2 - 0.0
27/06:00am 2.2 0.0 -1.6 76 1.3 CALM 0 0 0 0 1027.1 1027.3 0.0
27/05:30am 2.5 0.3 -1.5 75 1.4 CALM 0 0 0 0 1026.8 - 0.0
27/05:00am 2.6 0.4 -1.4 75 1.4 CALM 0 0 0 0 1026.5 1026.8 0.0
27/04:30am 2.8 0.6 -1.5 73 1.6 CALM 0 0 0 0 1026.7 - 0.0
27/04:00am 3.2 1.1 -0.8 75 1.5 CALM 0 0 0 0 1026.5 1026.8 0.0
27/03:30am 3.4 1.3 -1.0 73 1.6 CALM 0 0 0 0 1026.8 - 0.0
27/03:00am 3.5 1.4 -1.1 72 1.7 CALM 0 0 0 0 1027.0 1027.2 0.0
27/02:30am 4.2 1.4 -0.6 71 1.8 WNW 4 6 2 3 1027.0 - 0.0
27/02:00am 4.3 2.2 -0.7 70 1.9 CALM 0 0 0 0 1027.2 1027.4 0.0
27/01:30am 4.7 1.9 -0.7 68 2.0 W 4 7 2 4 1027.3 - 0.0
27/01:00am 5.0 3.0 0.0 70 1.9 CALM 0 0 0 0 1027.6 1027.8 0.0
27/12:30am 5.5 3.5 -0.1 67 2.2 CALM 0 0 0 0 1027.7 - 0.0
27/12:00am 5.9 3.9 -0.2 65 2.3 CALM 0 0 0 0 1027.9 1028.1 0.0
 
Date/Time
EST
Temp
°C
App
Temp
°C
Dew
Point
Rel
Hum
%
Delta-T
°C
Wind Press
QNH
hPa
Press
MSL
hPa
Rain
since 9 am
mm
Dir
 
Spd
km/h
Gust
km/h
Spd
kts
Gust
kts
26/11:30pm 6.3 3.0 0.2 65 2.4 SW 7 9 4 5 1028.0 - 0.0
26/11:00pm 6.9 4.9 0.1 62 2.7 CALM 0 0 0 0 1028.0 1028.2 0.0
26/10:30pm 7.5 5.7 1.4 65 2.5 CALM 0 0 0 0 1028.1 - 0.0
26/10:00pm 8.3 5.4 1.2 61 2.9 WNW 6 7 3 4 1028.0 1028.2 0.0
26/09:30pm 9.0 5.5 1.4 59 3.2 NW 9 9 5 5 1027.9 - 0.0
26/09:00pm 9.7 6.8 1.6 57 3.4 NNW 6 9 3 5 1027.8 1028.0 0.0
26/08:30pm 11.3 9.7 2.6 55 3.8 CALM 0 0 0 0 1027.4 - 0.0
26/08:00pm 11.2 8.4 2.0 53 3.9 SSW 6 7 3 4 1027.1 1027.3 0.0
26/07:30pm 12.7 8.7 2.6 50 4.5 WSW 13 13 7 7 1026.9 - 0.0
26/07:00pm 13.1 9.4 2.4 48 4.7 WSW 11 13 6 7 1026.7 1026.9 0.0
26/06:30pm 14.2 10.9 2.5 45 5.2 WSW 9 11 5 6 1026.2 - 0.0
26/06:00pm 16.0 12.3 2.4 40 6.1 W 11 13 6 7 1025.9 1026.2 0.0
26/05:30pm 18.1 14.5 2.8 36 7.1 SW 11 15 6 8 1026.0 - 0.0
26/05:00pm 18.6 14.8 2.0 33 7.6 SW 11 15 6 8 1025.9 1026.2 0.0
26/04:30pm 19.1 15.3 1.6 31 8.0 SW 11 20 6 11 1025.8 - 0.0
26/04:00pm 18.9 14.0 1.9 32 7.8 SW 17 24 9 13 1025.9 1026.2 0.0
26/03:30pm 19.5 15.9 2.8 33 7.8 SW 11 17 6 9 1025.7 - 0.0
26/03:00pm 19.2 15.1 2.1 32 7.9 WSW 13 20 7 11 1025.5 1025.7 0.0
26/02:30pm 19.0 14.2 2.4 33 7.7 W 17 22 9 12 1025.4 - 0.0
26/02:00pm 19.4 15.5 3.2 34 7.6 WSW 13 26 7 14 1025.6 1025.8 0.0
26/01:30pm 18.3 14.3 3.0 36 7.1 WSW 13 20 7 11 1026.0 - 0.0
26/01:00pm 18.2 15.5 5.4 43 6.2 SSW 9 17 5 9 1026.7 1026.9 0.0
26/12:30pm 17.3 14.5 5.3 45 5.8 S 9 17 5 9 1027.3 - 0.0

Other Formats:

Comma delimited format used in spreadsheet applications
http://www.bom.gov.au/fwo/IDN60801/IDN60801.94686.axf

JavaScript Object Notation format (JSON) in row-major order
http://www.bom.gov.au/fwo/IDN60801/IDN60801.94686.json